createdAt,value
2023-02-14T00:02:24.369Z,100814.53
2023-02-14T00:04:54.899Z,100813.97
2023-02-14T00:07:27.006Z,100809.28
2023-02-14T00:09:57.650Z,100817.84
2023-02-14T00:12:28.117Z,100823.47
2023-02-14T00:15:15.027Z,100817.00
2023-02-14T00:17:45.555Z,100815.50
2023-02-14T00:20:19.166Z,100822.31
2023-02-14T00:22:51.294Z,100820.53
2023-02-14T00:25:22.118Z,100799.03
2023-02-14T00:27:52.659Z,100814.59
2023-02-14T00:30:23.166Z,100812.53
2023-02-14T00:32:56.747Z,100820.75
2023-02-14T00:35:27.257Z,100810.09
2023-02-14T00:37:59.362Z,100814.22
2023-02-14T00:40:33.981Z,100814.78
2023-02-14T00:43:04.511Z,100814.53
2023-02-14T00:45:35.138Z,100820.38
2023-02-14T00:48:05.747Z,100823.91
2023-02-14T00:50:36.268Z,100824.41
2023-02-14T00:53:08.423Z,100819.03
2023-02-14T00:55:38.898Z,100813.19
2023-02-14T00:58:09.419Z,100803.44
2023-02-14T01:00:40.003Z,100818.66
2023-02-14T01:03:10.575Z,100822.41
2023-02-14T01:05:41.122Z,100761.09
2023-02-14T01:08:13.332Z,100814.91
2023-02-14T01:10:44.374Z,100722.47
2023-02-14T01:13:15.966Z,100805.41
2023-02-14T01:15:48.656Z,100801.06
2023-02-14T01:18:20.207Z,100795.38
2023-02-14T01:20:50.821Z,100742.25
2023-02-14T01:23:23.024Z,100791.78
2023-02-14T01:25:53.544Z,100782.69
2023-02-14T01:28:24.024Z,100782.94
2023-02-14T01:30:54.530Z,100778.41
2023-02-14T01:33:25.574Z,100787.47
2023-02-14T01:35:56.079Z,100777.41
2023-02-14T01:38:28.357Z,100785.06
2023-02-14T01:40:59.392Z,100778.00
2023-02-14T01:43:30.158Z,100767.31
2023-02-14T01:46:00.622Z,100768.84
2023-02-14T01:48:31.184Z,100783.84
2023-02-14T01:51:01.943Z,100775.00
2023-02-14T01:53:34.286Z,100641.41
2023-02-14T01:56:10.428Z,100767.69
2023-02-14T01:58:45.880Z,100759.00
2023-02-14T02:01:17.402Z,100759.22
2023-02-14T02:03:51.804Z,100753.38
2023-02-14T02:06:29.420Z,100708.97
2023-02-14T02:09:10.376Z,100759.03
2023-02-14T02:11:41.064Z,100758.66
2023-02-14T02:14:16.844Z,100720.94
2023-02-14T02:17:16.189Z,100735.66
2023-02-14T02:20:29.764Z,100739.75
2023-02-14T02:23:36.333Z,100742.25
2023-02-14T02:26:37.149Z,100741.25
2023-02-14T02:29:36.012Z,100744.88
2023-02-14T02:32:45.262Z,100714.06
2023-02-14T02:35:39.617Z,100728.28
2023-02-14T02:38:24.001Z,100681.09
2023-02-14T02:41:04.132Z,100714.59
2023-02-14T02:43:46.561Z,100723.94
2023-02-14T02:46:42.773Z,100716.66
2023-02-14T02:49:36.759Z,100718.81
2023-02-14T02:52:35.083Z,100717.59
2023-02-14T02:55:10.883Z,100726.41
2023-02-14T02:57:45.444Z,100712.47
2023-02-14T03:00:17.136Z,100720.44
2023-02-14T03:03:07.848Z,100713.09
2023-02-14T03:05:39.606Z,100661.56
2023-02-14T03:08:11.725Z,100708.78
2023-02-14T03:10:43.084Z,100717.84
2023-02-14T03:13:45.894Z,100709.56
2023-02-14T03:16:37.351Z,100698.72
2023-02-14T03:20:01.043Z,100712.09
2023-02-14T03:22:44.389Z,100694.75
2023-02-14T03:25:26.929Z,100655.09
2023-02-14T03:28:07.216Z,100690.19
2023-02-14T03:30:44.585Z,100706.06
2023-02-14T03:33:19.861Z,100665.81
2023-02-14T03:35:57.583Z,100703.06
2023-02-14T03:38:34.095Z,100698.06
2023-02-14T03:41:08.751Z,100685.72
2023-02-14T03:43:43.959Z,100693.50
2023-02-14T03:46:21.517Z,100696.25
2023-02-14T03:48:55.541Z,100668.59
2023-02-14T03:51:28.012Z,100687.47
2023-02-14T03:54:01.733Z,100687.22
2023-02-14T03:56:39.392Z,100699.56
2023-02-14T03:59:17.036Z,100675.88
2023-02-14T04:01:51.388Z,100671.47
2023-02-14T04:04:25.017Z,100673.88
2023-02-14T04:06:55.761Z,100668.72
2023-02-14T04:09:26.220Z,100676.88
2023-02-14T04:11:58.395Z,100675.03
2023-02-14T04:14:30.355Z,100682.72
2023-02-14T04:17:17.668Z,100674.78
2023-02-14T04:19:48.086Z,100677.03
2023-02-14T04:22:18.679Z,100658.81
2023-02-14T04:24:49.375Z,100656.25
2023-02-14T04:27:24.239Z,100660.03
2023-02-14T04:29:55.015Z,100665.03
2023-02-14T04:32:26.073Z,100664.56
2023-02-14T04:34:56.596Z,100635.16
2023-02-14T04:37:27.049Z,100667.06
2023-02-14T04:39:57.524Z,100657.00
2023-02-14T04:42:29.598Z,100658.75
2023-02-14T04:45:00.780Z,100640.97
2023-02-14T04:47:32.537Z,100650.53
2023-02-14T04:50:03.010Z,100660.34
2023-02-14T04:52:33.509Z,100655.09
2023-02-14T04:55:04.094Z,100648.06
2023-02-14T04:57:36.328Z,100649.16
2023-02-14T05:00:07.318Z,100653.16
2023-02-14T05:02:38.009Z,100643.88
2023-02-14T05:05:10.069Z,100585.22
2023-02-14T05:07:40.581Z,100648.03
2023-02-14T05:10:12.058Z,100651.44
2023-02-14T05:12:47.445Z,100630.56
2023-02-14T05:15:18.084Z,100636.66
2023-02-14T05:17:48.546Z,100650.97
2023-02-14T05:20:19.135Z,100650.09
2023-02-14T05:22:49.661Z,100648.69
2023-02-14T05:25:20.362Z,100589.34
2023-02-14T05:27:55.052Z,100639.88
2023-02-14T05:30:28.757Z,100645.16
2023-02-14T05:32:59.718Z,100645.22
2023-02-14T05:35:30.629Z,100639.41
2023-02-14T05:38:01.311Z,100594.75
2023-02-14T05:40:32.058Z,100649.97
2023-02-14T05:43:04.324Z,100645.16
2023-02-14T05:45:34.841Z,100640.88
2023-02-14T05:48:06.980Z,100638.34
2023-02-14T05:50:37.677Z,100651.13
2023-02-14T05:53:08.354Z,100639.03
2023-02-14T05:55:39.209Z,100646.47
2023-02-14T05:58:14.650Z,100640.13
2023-02-14T06:00:45.331Z,100626.88
2023-02-14T06:03:15.932Z,100643.72
2023-02-14T06:05:46.496Z,100634.78
2023-02-14T06:08:17.086Z,100632.38
2023-02-14T06:10:47.766Z,100451.53
2023-02-14T06:13:20.127Z,100595.44
2023-02-14T06:15:51.430Z,100622.75
2023-02-14T06:18:22.023Z,100629.47
2023-02-14T06:20:54.033Z,100643.22
2023-02-14T06:23:24.781Z,100655.06
2023-02-14T06:25:55.367Z,100640.66
2023-02-14T06:28:27.564Z,100549.97
2023-02-14T06:30:58.511Z,100649.97
2023-02-14T06:33:29.450Z,100650.69
2023-02-14T06:36:00.097Z,100654.84
2023-02-14T06:38:31.008Z,100657.34
2023-02-14T06:41:06.716Z,100655.84
2023-02-14T06:43:39.432Z,100659.06
2023-02-14T06:46:10.064Z,100667.19
2023-02-14T06:48:41.110Z,100676.22
2023-02-14T06:51:11.953Z,100682.00
2023-02-14T06:53:42.921Z,100673.72
2023-02-14T06:56:13.581Z,100673.19
2023-02-14T06:58:48.818Z,100677.16
2023-02-14T07:01:19.385Z,100679.69
2023-02-14T07:03:49.976Z,100671.63
2023-02-14T07:06:20.626Z,100677.97
2023-02-14T07:08:51.158Z,100677.09
2023-02-14T07:11:21.752Z,100679.50
2023-02-14T07:13:54.067Z,100683.81
2023-02-14T07:16:24.670Z,100685.16
2023-02-14T07:18:55.230Z,100682.00
2023-02-14T07:21:25.808Z,100682.66
2023-02-14T07:23:56.332Z,100683.56
2023-02-14T07:26:26.848Z,100691.66
2023-02-14T07:28:59.035Z,100695.06
2023-02-14T07:31:29.736Z,100698.31
2023-02-14T07:34:02.581Z,100698.00
2023-02-14T07:36:33.279Z,100712.72
2023-02-14T07:39:03.761Z,100712.16
2023-02-14T07:41:34.313Z,100700.34
2023-02-14T07:44:06.520Z,100718.91
2023-02-14T07:46:37.163Z,100714.78
2023-02-14T07:49:07.957Z,100727.13
2023-02-14T07:51:38.476Z,100629.41
2023-02-14T07:54:09.078Z,100727.41
2023-02-14T07:56:39.627Z,100731.47
2023-02-14T07:59:11.756Z,100737.09
2023-02-14T08:01:43.263Z,100735.00
2023-02-14T08:04:15.825Z,100734.69
2023-02-14T08:06:47.521Z,100745.41
2023-02-14T08:09:25.788Z,100744.94
2023-02-14T08:12:15.374Z,100742.59
2023-02-14T08:14:49.252Z,100748.78
2023-02-14T08:17:21.094Z,100747.31
2023-02-14T08:19:52.531Z,100715.13
2023-02-14T08:22:24.474Z,100705.97
2023-02-14T08:24:56.047Z,100754.84
2023-02-14T08:27:27.963Z,100748.03
2023-02-14T08:30:01.353Z,100745.50
2023-02-14T08:32:33.068Z,100769.25
2023-02-14T08:35:05.240Z,100766.75
2023-02-14T08:37:36.821Z,100776.00
2023-02-14T08:40:08.606Z,100756.66
2023-02-14T08:42:40.192Z,100769.88
2023-02-14T08:45:14.324Z,100769.53
2023-02-14T08:47:46.160Z,100768.75
2023-02-14T08:50:19.489Z,100765.47
2023-02-14T08:52:50.918Z,100771.31
2023-02-14T08:55:22.886Z,100775.16
2023-02-14T08:57:54.408Z,100777.03
2023-02-14T09:00:28.366Z,100771.81
2023-02-14T09:02:59.996Z,100595.38
2023-02-14T09:05:32.068Z,100778.66
2023-02-14T09:08:04.987Z,100771.81
2023-02-14T09:10:36.471Z,100782.25
2023-02-14T09:13:08.323Z,100786.88
2023-02-14T09:15:41.746Z,100787.94
2023-02-14T09:18:13.498Z,100783.28
2023-02-14T09:20:45.572Z,100784.91
2023-02-14T09:23:17.220Z,100787.00
2023-02-14T09:25:48.468Z,100789.56
2023-02-14T09:28:20.046Z,100790.66
2023-02-14T09:30:54.547Z,100786.22
2023-02-14T09:33:26.898Z,100792.13
2023-02-14T09:36:17.484Z,100802.41
2023-02-14T09:38:49.434Z,100793.06
2023-02-14T09:42:00.719Z,100800.75
2023-02-14T09:44:38.150Z,100810.25
2023-02-14T09:47:21.435Z,100799.91
2023-02-14T09:49:55.497Z,100835.00
2023-02-14T09:52:32.565Z,100815.44
2023-02-14T09:55:05.920Z,100791.09
2023-02-14T09:57:46.316Z,100812.13
2023-02-14T10:00:25.808Z,100819.25
2023-02-14T10:03:16.270Z,100800.44
2023-02-14T10:05:56.641Z,100818.78
2023-02-14T10:08:45.258Z,100815.94
2023-02-14T10:11:24.327Z,100791.13
2023-02-14T10:14:00.435Z,100811.59
2023-02-14T10:16:37.319Z,100820.03
2023-02-14T10:19:21.135Z,100811.66
2023-02-14T10:21:57.987Z,100814.63
2023-02-14T10:24:34.282Z,100675.84
2023-02-14T10:27:13.257Z,100817.16
2023-02-14T10:29:46.058Z,100807.59
2023-02-14T10:32:29.228Z,100815.81
2023-02-14T10:35:08.906Z,100749.19
2023-02-14T10:38:01.702Z,100816.91
2023-02-14T10:41:07.400Z,100806.13
2023-02-14T10:43:50.666Z,100800.91
2023-02-14T10:47:40.586Z,100822.72
2023-02-14T10:50:17.185Z,100822.28
2023-02-14T10:54:19.424Z,100832.75
2023-02-14T10:57:07.825Z,100826.34
2023-02-14T10:59:50.177Z,100790.78
2023-02-14T11:02:26.006Z,100761.00
2023-02-14T11:04:58.244Z,100841.16
2023-02-14T11:07:31.561Z,100842.50
2023-02-14T11:10:02.802Z,100704.22
2023-02-14T11:12:43.172Z,100833.59
2023-02-14T11:15:22.889Z,100821.97
2023-02-14T11:18:10.399Z,100829.31
2023-02-14T11:20:41.827Z,100844.81
2023-02-14T11:23:24.619Z,100858.00
2023-02-14T11:26:02.187Z,100846.00
2023-02-14T11:28:35.913Z,100839.97
2023-02-14T11:31:07.387Z,100840.69
2023-02-14T11:33:42.454Z,100860.38
2023-02-14T11:36:20.712Z,100852.38
2023-02-14T11:39:04.264Z,100833.22
2023-02-14T11:41:52.860Z,100837.13
2023-02-14T11:44:28.861Z,100839.31
2023-02-14T11:47:01.105Z,100848.53
2023-02-14T11:49:34.722Z,100711.34
2023-02-14T11:52:16.377Z,100845.34
2023-02-14T11:54:52.516Z,100852.22
2023-02-14T11:57:30.506Z,100833.63
2023-02-14T12:00:04.292Z,100846.00
2023-02-14T12:02:43.398Z,100843.13
2023-02-14T12:05:23.749Z,100847.72
2023-02-14T12:08:01.484Z,100829.28
2023-02-14T12:10:36.553Z,100850.94
2023-02-14T12:13:26.361Z,100740.53
2023-02-14T12:16:02.656Z,100840.72
2023-02-14T12:18:57.789Z,100837.19
2023-02-14T12:21:50.691Z,100847.50
2023-02-14T12:24:32.685Z,100841.44
2023-02-14T12:27:21.323Z,100829.03
2023-02-14T12:29:56.470Z,100831.50
2023-02-14T12:32:29.434Z,100823.31
2023-02-14T12:43:15.415Z,100842.16
2023-02-14T12:46:11.450Z,100841.38
2023-02-14T12:49:00.546Z,100845.66
2023-02-14T12:51:35.520Z,100848.88
2023-02-14T12:54:24.082Z,100742.66
2023-02-14T12:57:10.853Z,100844.97
2023-02-14T12:59:57.295Z,100854.19
2023-02-14T13:03:16.175Z,100851.69
2023-02-14T13:06:01.913Z,100857.28
2023-02-14T13:09:13.737Z,100853.75
2023-02-14T13:11:57.200Z,100861.78
2023-02-14T13:14:48.069Z,100849.31
2023-02-14T13:17:30.722Z,100863.47
2023-02-14T13:20:09.244Z,100851.38
2023-02-14T13:22:41.283Z,100852.78
2023-02-14T13:25:31.938Z,100844.78
2023-02-14T13:28:05.115Z,100837.19
2023-02-14T13:30:43.463Z,100859.91
2023-02-14T13:33:33.870Z,100765.16
2023-02-14T13:36:09.830Z,100868.31
2023-02-14T13:38:46.947Z,100867.28
2023-02-14T13:41:19.985Z,100864.84
2023-02-14T13:43:58.974Z,100856.34
2023-02-14T13:46:56.995Z,100865.59
2023-02-14T13:50:23.382Z,100868.41
2023-02-14T13:57:56.154Z,100888.28
2023-02-14T14:09:29.910Z,100878.34
2023-02-14T14:12:30.267Z,100876.97
2023-02-14T14:15:20.314Z,100881.56
2023-02-14T14:18:07.344Z,100884.84
2023-02-14T14:20:48.977Z,100851.78
2023-02-14T14:23:41.528Z,100861.97
2023-02-14T14:30:20.978Z,100876.44
2023-02-14T14:32:55.103Z,100877.81
2023-02-14T14:35:31.949Z,100878.19
2023-02-14T14:41:16.288Z,100870.31
2023-02-14T14:44:30.189Z,100866.53
2023-02-14T14:47:38.317Z,100862.84
2023-02-14T14:50:22.718Z,100859.28
2023-02-14T14:53:06.938Z,100852.94
2023-02-14T14:55:41.163Z,100858.34
2023-02-14T14:58:44.077Z,100858.25
2023-02-14T15:01:35.176Z,100835.50
2023-02-14T15:04:24.788Z,100743.50
2023-02-14T15:06:59.827Z,100846.47
2023-02-14T15:09:36.693Z,100843.31
2023-02-14T15:12:26.839Z,100837.00
2023-02-14T15:15:19.236Z,100837.97
2023-02-14T15:17:52.967Z,100838.91
2023-02-14T15:20:31.622Z,100842.03
2023-02-14T15:23:06.065Z,100838.47
2023-02-14T15:25:45.460Z,100841.88
2023-02-14T15:28:30.361Z,100837.22
2023-02-14T15:31:07.779Z,100834.09
2023-02-14T15:33:42.514Z,100787.59
2023-02-14T15:36:39.246Z,100828.53
2023-02-14T15:39:15.302Z,100827.19
2023-02-14T15:42:30.467Z,100825.16
2023-02-14T15:45:54.056Z,100824.66
2023-02-14T15:48:33.973Z,100812.22
2023-02-14T15:51:10.957Z,100826.09
2023-02-14T15:57:07.798Z,100807.75
2023-02-14T15:59:44.619Z,100821.22
2023-02-14T16:02:31.712Z,100824.03
2023-02-14T16:05:10.589Z,100813.28
2023-02-14T16:07:42.947Z,100834.53
2023-02-14T16:10:27.588Z,100819.31
2023-02-14T16:13:44.949Z,100807.13
2023-02-14T16:16:18.154Z,100826.25
2023-02-14T16:18:53.135Z,100830.47
2023-02-14T16:21:33.907Z,100661.44
2023-02-14T16:24:16.410Z,100825.34
2023-02-14T16:26:51.068Z,100826.31
2023-02-14T16:29:33.913Z,100833.41
2023-02-14T16:32:16.518Z,100837.59
2023-02-14T16:34:49.653Z,100830.22
2023-02-14T16:37:25.810Z,100842.41
2023-02-14T16:39:59.058Z,100843.44
2023-02-14T16:42:30.544Z,100834.25
2023-02-14T16:45:06.188Z,100834.84
2023-02-14T16:47:50.868Z,100831.66
2023-02-14T16:50:23.692Z,100836.94
2023-02-14T16:53:05.456Z,100843.66
2023-02-14T16:55:38.361Z,100832.69
2023-02-14T16:58:11.659Z,100835.13
2023-02-14T17:00:45.563Z,100830.44
2023-02-14T17:03:19.440Z,100834.00
2023-02-14T17:06:51.239Z,100828.38
2023-02-14T17:09:28.344Z,100831.41
2023-02-14T17:12:06.219Z,100825.94
2023-02-14T17:14:41.849Z,100830.25
2023-02-14T17:17:14.158Z,100830.38
2023-02-14T17:19:45.610Z,100840.69
2023-02-14T17:22:17.905Z,100825.47
2023-02-14T17:24:49.271Z,100826.88
2023-02-14T17:27:22.424Z,100826.53
2023-02-14T17:29:54.208Z,100822.63
2023-02-14T17:32:25.782Z,100822.59
2023-02-14T17:34:58.015Z,100825.41
2023-02-14T17:37:29.891Z,100821.16
2023-02-14T17:40:01.452Z,100801.22
2023-02-14T17:42:36.356Z,100836.00
2023-02-14T17:45:08.855Z,100833.53
2023-02-14T17:47:40.352Z,100831.78
2023-02-14T17:50:12.720Z,100822.91
2023-02-14T17:52:44.351Z,100825.09
2023-02-14T17:55:16.882Z,100840.50
2023-02-14T17:57:53.442Z,100834.59
2023-02-14T18:00:26.069Z,100818.94
2023-02-14T18:02:57.712Z,100731.31
2023-02-14T18:05:29.120Z,100707.81
2023-02-14T18:08:03.986Z,100825.41
2023-02-14T18:10:35.407Z,100820.25
2023-02-14T18:13:08.696Z,100825.63
2023-02-14T18:15:40.117Z,100820.34
2023-02-14T18:18:11.747Z,100817.19
2023-02-14T18:20:43.428Z,100814.31
2023-02-14T18:23:14.904Z,100826.31
2023-02-14T18:25:55.509Z,100834.09
2023-02-14T18:28:31.004Z,100766.63
2023-02-14T18:31:07.723Z,100823.38
2023-02-14T18:33:39.635Z,100838.91
2023-02-14T18:36:13.906Z,100813.41
2023-02-14T18:38:46.603Z,100723.31
2023-02-14T18:41:19.207Z,100825.34
2023-02-14T18:43:53.132Z,100826.34
2023-02-14T18:46:26.103Z,100693.66
2023-02-14T18:48:59.212Z,100827.25
2023-02-14T18:51:32.172Z,100742.47
2023-02-14T18:54:05.570Z,100825.22
2023-02-14T18:56:38.999Z,100845.31
2023-02-14T18:59:14.355Z,100837.53
2023-02-14T19:01:48.225Z,100815.09
2023-02-14T19:04:21.570Z,100839.41
2023-02-14T19:06:52.978Z,100667.22
2023-02-14T19:09:27.034Z,100832.03
2023-02-14T19:12:01.112Z,100761.81
2023-02-14T19:14:34.609Z,100841.94
2023-02-14T19:17:06.328Z,100846.78
2023-02-14T19:19:37.926Z,100844.63
2023-02-14T19:22:09.579Z,100844.00
2023-02-14T19:24:41.176Z,100852.63
2023-02-14T19:27:12.673Z,100851.72
2023-02-14T19:29:46.024Z,100844.94
2023-02-14T19:32:17.522Z,100856.06
2023-02-14T19:34:49.411Z,100853.91
2023-02-14T19:37:21.269Z,100853.91
2023-02-14T19:39:53.103Z,100852.88
2023-02-14T19:42:24.667Z,100853.66
2023-02-14T19:44:58.015Z,100846.53
2023-02-14T19:47:45.927Z,100772.13
2023-02-14T19:50:19.461Z,100862.13
2023-02-14T19:52:51.692Z,100845.88
2023-02-14T19:55:25.936Z,100842.72
2023-02-14T19:57:58.629Z,100837.09
2023-02-14T20:00:31.963Z,100833.19
2023-02-14T20:03:05.046Z,100820.09
2023-02-14T20:05:36.484Z,100851.47
2023-02-14T20:08:08.343Z,100850.75
2023-02-14T20:10:39.922Z,100860.88
2023-02-14T20:13:11.700Z,100846.53
2023-02-14T20:15:46.539Z,100775.81
2023-02-14T20:18:18.320Z,100849.91
2023-02-14T20:21:05.709Z,100849.53
2023-02-14T20:23:37.575Z,100856.53
2023-02-14T20:26:14.030Z,100659.13
2023-02-14T20:28:46.165Z,100858.13
2023-02-14T20:31:20.298Z,100759.09
2023-02-14T20:33:54.342Z,100855.22
2023-02-14T20:36:29.082Z,100760.75
2023-02-14T20:39:00.381Z,100858.66
2023-02-14T20:41:31.647Z,100852.75
2023-02-14T20:44:06.039Z,100848.22
2023-02-14T20:46:38.676Z,100856.63
2023-02-14T20:49:11.893Z,100863.69
2023-02-14T20:51:43.233Z,100865.25
2023-02-14T20:54:13.768Z,100861.81
2023-02-14T20:56:44.281Z,100859.53
2023-02-14T20:59:14.888Z,100848.50
2023-02-14T21:01:47.263Z,100870.19
2023-02-14T21:04:17.759Z,100866.03
2023-02-14T21:06:48.599Z,100869.31
2023-02-14T21:09:21.545Z,100871.19
2023-02-14T21:11:54.614Z,100875.50
2023-02-14T21:14:25.102Z,100870.97
2023-02-14T21:16:57.082Z,100874.25
2023-02-14T21:19:29.414Z,100871.66
2023-02-14T21:22:00.011Z,100876.84
2023-02-14T21:24:30.540Z,100883.34
2023-02-14T21:27:02.562Z,100876.66
2023-02-14T21:29:33.091Z,100882.09
2023-02-14T21:32:05.338Z,100887.09
2023-02-14T21:34:36.220Z,100877.84
2023-02-14T21:37:06.758Z,100853.66
2023-02-14T21:39:38.783Z,100893.09
2023-02-14T21:42:12.226Z,100816.41
2023-02-14T21:44:59.282Z,100894.59
2023-02-14T21:47:31.321Z,100875.81
2023-02-14T21:50:18.556Z,100898.16
2023-02-14T21:52:49.131Z,100902.78
2023-02-14T21:55:19.833Z,100906.00
2023-02-14T21:57:50.389Z,100913.03
2023-02-14T22:00:21.438Z,100903.56
2023-02-14T22:02:53.622Z,100910.91
2023-02-14T22:05:24.105Z,100880.44
2023-02-14T22:07:54.658Z,100906.75
2023-02-14T22:10:25.196Z,100907.13
2023-02-14T22:12:55.699Z,100910.66
2023-02-14T22:15:26.091Z,100915.94
2023-02-14T22:17:58.134Z,100914.34
2023-02-14T22:20:28.657Z,100924.28
2023-02-14T22:22:59.197Z,100918.44
2023-02-14T22:25:29.760Z,100922.34
2023-02-14T22:28:00.225Z,100924.97
2023-02-14T22:30:30.672Z,100925.88
2023-02-14T22:33:02.704Z,100929.06
2023-02-14T22:35:33.129Z,100947.53
2023-02-14T22:38:03.577Z,100941.50
2023-02-14T22:40:34.056Z,100941.66
2023-02-14T22:43:04.576Z,100941.44
2023-02-14T22:45:35.266Z,100939.94
2023-02-14T22:48:07.771Z,100941.28
2023-02-14T22:50:38.206Z,100934.03
2023-02-14T22:53:08.776Z,100942.63
2023-02-14T22:55:39.291Z,100882.66
2023-02-14T22:58:09.988Z,100941.53
2023-02-14T23:00:40.771Z,100952.09
2023-02-14T23:03:14.518Z,100939.19
2023-02-14T23:05:44.984Z,100944.72
2023-02-14T23:08:15.377Z,100947.91
2023-02-14T23:10:45.880Z,100959.88
2023-02-14T23:13:33.191Z,100965.31
2023-02-14T23:16:26.560Z,100924.72
2023-02-14T23:19:15.145Z,100956.19
2023-02-14T23:21:57.472Z,100956.41
2023-02-14T23:24:28.037Z,100951.19
2023-02-14T23:26:58.614Z,100975.47
2023-02-14T23:29:29.035Z,100967.38
2023-02-14T23:31:59.777Z,100967.28
2023-02-14T23:34:34.197Z,100960.78
2023-02-14T23:37:05.089Z,100978.94
2023-02-14T23:39:39.361Z,100979.59
2023-02-14T23:42:13.030Z,100973.16
2023-02-14T23:44:44.889Z,100923.19
2023-02-14T23:47:16.719Z,100889.16
2023-02-14T23:49:48.898Z,100976.69
2023-02-14T23:52:19.403Z,100967.81
2023-02-14T23:54:49.855Z,100987.50
2023-02-14T23:57:20.519Z,100983.91
2023-02-14T23:59:51.053Z,100975.06
